Time;durP1;ratioP1;P1;durP2;ratioP2;P2;SDS_P1;SDS_P2;PMS_P1;PMS_P2;Temp;Humidity;BMP_temperature;BMP_pressure;BME280_temperature;BME280_humidity;BME280_pressure;Samples;Min_cycle;Max_cycle;Signal;HPM_P1;HPM_P2
2023/11/25 00:02:05;;;;;;;12.63;4.20;;;;;;;2.94;100.00;100434.44;5037562;28;20045;-80
2023/11/25 00:04:31;;;;;;;13.70;4.38;;;;;;;3.12;100.00;100441.81;5038552;28;20067;-80
2023/11/25 00:06:58;;;;;;;14.77;4.20;;;;;;;3.21;100.00;100444.53;5040589;28;20052;-80
2023/11/25 00:09:24;;;;;;;13.30;3.50;;;;;;;3.24;100.00;100448.66;5039550;28;20128;-80
2023/11/25 00:11:51;;;;;;;14.55;3.83;;;;;;;3.28;100.00;100431.97;5038428;28;20136;-81
2023/11/25 00:14:18;;;;;;;13.23;3.20;;;;;;;3.31;100.00;100432.53;5037866;28;20080;-81
2023/11/25 00:16:46;;;;;;;7.68;3.00;;;;;;;3.34;100.00;100437.50;5032527;28;20045;-81
2023/11/25 00:19:12;;;;;;;13.73;3.85;;;;;;;3.25;100.00;100439.97;5039425;28;20144;-78
2023/11/25 00:21:39;;;;;;;7.40;3.05;;;;;;;3.22;100.00;100448.78;5041582;28;20050;-79
2023/11/25 00:24:07;;;;;;;14.05;3.60;;;;;;;3.20;100.00;100439.47;5035272;28;20183;-78
2023/11/25 00:26:34;;;;;;;10.18;3.05;;;;;;;3.21;100.00;100443.72;5033405;28;20423;-79
2023/11/25 00:29:00;;;;;;;7.65;3.05;;;;;;;3.19;100.00;100443.00;5035028;28;20128;-79
2023/11/25 00:31:27;;;;;;;11.07;3.47;;;;;;;3.13;100.00;100446.03;5035208;28;20135;-79
2023/11/25 00:33:55;;;;;;;17.27;3.72;;;;;;;3.08;100.00;100453.28;5035375;28;20053;-80
2023/11/25 00:36:21;;;;;;;14.27;3.88;;;;;;;3.11;100.00;100455.66;5034706;28;20049;-80
2023/11/25 00:38:48;;;;;;;17.58;3.70;;;;;;;3.14;100.00;100455.44;5035126;28;20546;-80
2023/11/25 00:41:15;;;;;;;12.32;3.42;;;;;;;3.12;100.00;100454.72;5034610;28;20140;-79
2023/11/25 00:43:41;;;;;;;14.93;3.95;;;;;;;3.13;100.00;100449.44;5034857;28;20081;-79
2023/11/25 00:46:08;;;;;;;8.55;3.03;;;;;;;3.21;100.00;100461.81;5034766;28;20148;-80
2023/11/25 00:48:35;;;;;;;9.68;3.25;;;;;;;3.15;100.00;100462.25;5033093;28;20073;-81
2023/11/25 00:51:03;;;;;;;13.68;3.28;;;;;;;3.13;100.00;100458.97;5043475;28;20072;-79
2023/11/25 00:53:30;;;;;;;13.45;3.50;;;;;;;3.08;100.00;100466.22;5037122;28;20099;-80
2023/11/25 00:55:57;;;;;;;10.82;3.50;;;;;;;3.08;100.00;100467.06;5034940;28;20084;-80
2023/11/25 00:58:23;;;;;;;11.25;3.65;;;;;;;3.09;100.00;100475.63;5037370;28;20080;-79
2023/11/25 01:00:52;;;;;;;12.82;3.58;;;;;;;3.11;100.00;100477.16;5034892;28;20124;-79
2023/11/25 01:03:18;;;;;;;15.70;4.25;;;;;;;3.06;100.00;100468.91;5035589;28;20053;-81
2023/11/25 01:05:45;;;;;;;12.82;3.72;;;;;;;3.07;100.00;100474.91;5038225;28;20045;-78
2023/11/25 01:08:13;;;;;;;16.77;3.83;;;;;;;3.05;100.00;100476.78;5037494;28;20475;-80
2023/11/25 01:10:40;;;;;;;13.25;3.50;;;;;;;3.05;100.00;100487.13;5035993;28;20069;-79
2023/11/25 01:13:07;;;;;;;8.73;3.58;;;;;;;2.91;100.00;100491.53;5036336;28;20451;-80
2023/11/25 01:15:34;;;;;;;14.20;3.72;;;;;;;2.94;100.00;100487.91;5035859;28;20053;-80
2023/11/25 01:18:01;;;;;;;17.35;4.10;;;;;;;2.88;100.00;100489.16;5034770;28;20116;-79
2023/11/25 01:20:27;;;;;;;15.77;4.43;;;;;;;2.85;100.00;100486.78;5034830;28;20117;-79
2023/11/25 01:22:54;;;;;;;18.58;4.55;;;;;;;2.80;100.00;100494.09;5034443;28;20464;-80
2023/11/25 01:25:22;;;;;;;15.80;4.53;;;;;;;2.86;100.00;100498.78;5033984;28;20512;-80
2023/11/25 01:27:49;;;;;;;16.60;4.47;;;;;;;2.81;100.00;100498.31;5033698;28;20076;-79
2023/11/25 01:30:16;;;;;;;22.17;4.45;;;;;;;2.85;100.00;100494.56;5034235;28;20077;-79
2023/11/25 01:32:42;;;;;;;14.23;3.53;;;;;;;2.89;100.00;100503.72;5034814;28;20119;-77
2023/11/25 01:35:09;;;;;;;20.30;4.25;;;;;;;3.00;100.00;100506.38;5036293;28;20049;-79
2023/11/25 01:37:35;;;;;;;18.35;4.82;;;;;;;3.04;100.00;100511.31;5035757;28;20124;-80
2023/11/25 01:40:05;;;;;;;16.23;4.60;;;;;;;3.10;100.00;100516.88;5035312;28;20084;-80
2023/11/25 01:42:33;;;;;;;10.88;3.90;;;;;;;3.14;100.00;100513.16;5036880;28;20060;-79
2023/11/25 01:44:59;;;;;;;12.68;4.40;;;;;;;3.15;100.00;100516.56;5037715;28;20401;-80
2023/11/25 01:47:26;;;;;;;14.00;4.55;;;;;;;3.15;100.00;100522.56;5035119;28;20132;-80
2023/11/25 01:49:53;;;;;;;12.05;4.15;;;;;;;3.16;100.00;100519.03;5035923;28;20049;-80
2023/11/25 01:52:19;;;;;;;23.63;5.25;;;;;;;3.11;100.00;100526.28;5035686;28;20100;-80
2023/11/25 01:54:46;;;;;;;18.00;6.25;;;;;;;2.93;100.00;100515.50;5040837;28;20076;-80
2023/11/25 01:57:16;;;;;;;16.23;5.82;;;;;;;2.90;100.00;100526.06;5038733;28;20227;-79
2023/11/25 01:59:45;;;;;;;16.13;5.35;;;;;;;2.82;100.00;100527.56;5039304;28;20148;-80
2023/11/25 02:02:15;;;;;;;12.63;5.18;;;;;;;2.76;100.00;100528.81;5036668;28;20062;-80
2023/11/25 02:04:43;;;;;;;16.75;5.63;;;;;;;2.75;100.00;100527.16;5037947;28;20077;-80
2023/11/25 02:07:11;;;;;;;17.73;6.72;;;;;;;2.79;100.00;100523.44;5039124;28;20050;-79
2023/11/25 02:09:38;;;;;;;18.40;6.10;;;;;;;2.80;100.00;100519.09;5038581;28;20053;-80
2023/11/25 02:12:05;;;;;;;20.35;6.40;;;;;;;2.66;100.00;100512.31;5037951;28;20105;-80
2023/11/25 02:14:31;;;;;;;20.67;6.45;;;;;;;2.58;100.00;100514.59;5037132;28;20087;-80
2023/11/25 02:17:00;;;;;;;18.77;6.95;;;;;;;2.61;100.00;100524.72;5044533;28;20057;-81
2023/11/25 02:19:28;;;;;;;22.30;8.85;;;;;;;2.54;100.00;100516.56;5047046;28;20053;-79
2023/11/25 02:21:55;;;;;;;25.52;8.80;;;;;;;2.58;100.00;100515.44;5036026;28;20558;-79
2023/11/25 02:24:26;;;;;;;18.88;8.45;;;;;;;2.59;100.00;100509.34;5043931;28;20507;-80
2023/11/25 02:26:58;;;;;;;25.42;7.88;;;;;;;2.61;100.00;100506.66;5029970;28;20064;-79
2023/11/25 02:29:25;;;;;;;21.77;7.97;;;;;;;2.51;100.00;100503.88;5035943;28;20049;-80
2023/11/25 02:31:51;;;;;;;22.65;8.13;;;;;;;2.55;100.00;100512.22;5035390;28;20136;-79
2023/11/25 02:34:20;;;;;;;22.35;7.65;;;;;;;2.57;100.00;100518.13;5038364;28;20132;-80
2023/11/25 02:36:48;;;;;;;19.42;8.80;;;;;;;2.49;100.00;100510.91;5050695;28;20065;-78
2023/11/25 02:39:17;;;;;;;23.67;9.18;;;;;;;2.55;100.00;100514.81;5047742;28;20060;-80
2023/11/25 02:41:48;;;;;;;29.65;9.30;;;;;;;2.51;100.00;100524.53;5038242;28;20144;-80
2023/11/25 02:44:15;;;;;;;24.60;7.57;;;;;;;2.50;100.00;100520.31;5039146;28;20129;-80
2023/11/25 02:46:44;;;;;;;21.55;7.43;;;;;;;2.48;100.00;100511.00;5046978;28;20109;-80
2023/11/25 02:49:11;;;;;;;18.67;8.50;;;;;;;2.51;100.00;100509.03;5038862;28;20109;-80
2023/11/25 02:51:38;;;;;;;24.73;9.43;;;;;;;2.48;100.00;100508.44;5041745;28;20063;-79
2023/11/25 02:54:05;;;;;;;23.05;8.82;;;;;;;2.42;100.00;100514.00;5049208;28;20059;-79
2023/11/25 02:56:32;;;;;;;24.77;8.73;;;;;;;2.47;100.00;100524.84;5038098;28;20045;-80
2023/11/25 02:59:00;;;;;;;27.83;9.02;;;;;;;2.47;100.00;100532.59;5039126;28;20046;-79
2023/11/25 03:01:29;;;;;;;21.33;6.70;;;;;;;2.40;100.00;100521.03;5038039;28;20148;-79
2023/11/25 03:03:59;;;;;;;18.83;7.25;;;;;;;2.37;100.00;100518.66;5046578;28;20057;-79
2023/11/25 03:06:26;;;;;;;22.35;8.30;;;;;;;2.36;100.00;100511.88;5038938;28;20530;-80
2023/11/25 03:08:55;;;;;;;29.75;8.30;;;;;;;2.38;100.00;100512.56;5039137;28;20291;-80
2023/11/25 03:11:22;;;;;;;23.27;7.95;;;;;;;2.43;100.00;100511.31;5039481;28;20125;-80
2023/11/25 03:13:48;;;;;;;25.15;7.20;;;;;;;2.46;100.00;100511.13;5038199;28;20084;-80
2023/11/25 03:16:24;;;;;;;27.77;7.80;;;;;;;2.48;100.00;100513.59;5038578;28;20092;-80
2023/11/25 03:18:50;;;;;;;26.77;7.32;;;;;;;2.44;100.00;100512.16;5038532;28;20638;-80
2023/11/25 03:21:18;;;;;;;18.23;7.00;;;;;;;2.47;100.00;100514.53;5037365;28;20045;-80
2023/11/25 03:23:46;;;;;;;29.13;6.90;;;;;;;2.51;100.00;100519.38;5033477;28;20132;-78
2023/11/25 03:26:13;;;;;;;25.42;8.25;;;;;;;2.48;100.00;100519.59;5041601;28;20064;-79
2023/11/25 03:28:40;;;;;;;25.08;8.13;;;;;;;2.47;100.00;100519.69;5033529;28;20140;-80
2023/11/25 03:31:08;;;;;;;25.40;7.75;;;;;;;2.56;100.00;100526.81;5042405;28;20124;-78
2023/11/25 03:33:36;;;;;;;19.33;5.97;;;;;;;2.61;100.00;100528.13;5041792;28;20061;-78
2023/11/25 03:36:07;;;;;;;20.92;4.93;;;;;;;2.66;100.00;100532.97;5034382;28;20136;-79
2023/11/25 03:38:34;;;;;;;17.42;4.63;;;;;;;2.65;100.00;100521.81;5037666;28;20052;-80
2023/11/25 03:41:01;;;;;;;22.08;5.90;;;;;;;2.68;100.00;100525.94;5038233;28;20503;-80
2023/11/25 03:43:30;;;;;;;19.42;6.88;;;;;;;2.74;100.00;100529.88;5033483;28;20136;-80
2023/11/25 03:45:57;;;;;;;23.40;7.85;;;;;;;2.73;100.00;100539.38;5039340;28;20080;-78
2023/11/25 03:48:23;;;;;;;30.48;7.88;;;;;;;2.79;100.00;100528.59;5033440;28;20051;-79
2023/11/25 03:50:51;;;;;;;23.40;7.65;;;;;;;2.85;100.00;100529.91;5040278;28;20050;-78
2023/11/25 03:53:18;;;;;;;25.30;8.65;;;;;;;2.81;100.00;100528.50;5031632;28;20077;-79
2023/11/25 03:55:45;;;;;;;31.50;7.35;;;;;;;2.84;100.00;100530.84;5040157;28;20539;-78
2023/11/25 03:58:12;;;;;;;25.20;7.50;;;;;;;2.89;100.00;100524.41;5040137;28;20081;-79
2023/11/25 04:00:38;;;;;;;17.83;7.38;;;;;;;2.90;100.00;100531.22;5032187;28;20049;-79
2023/11/25 04:03:05;;;;;;;26.02;7.00;;;;;;;2.98;100.00;100526.34;5034671;28;20427;-80
2023/11/25 04:05:33;;;;;;;29.73;8.32;;;;;;;3.07;100.00;100530.03;5043160;28;20132;-80
2023/11/25 04:08:01;;;;;;;29.42;7.68;;;;;;;3.11;100.00;100528.06;5034927;28;20547;-80
2023/11/25 04:10:27;;;;;;;33.38;7.68;;;;;;;3.18;100.00;100518.91;5036755;28;20141;-79
2023/11/25 04:12:56;;;;;;;34.20;8.13;;;;;;;3.18;100.00;100517.16;5032920;28;20512;-79
2023/11/25 04:15:23;;;;;;;27.30;8.63;;;;;;;3.28;100.00;100517.31;5033909;28;20417;-80
2023/11/25 04:17:50;;;;;;;28.60;7.75;;;;;;;3.28;100.00;100525.91;5044265;28;20502;-79
2023/11/25 04:20:24;;;;;;;25.85;7.65;;;;;;;3.29;100.00;100517.22;5035155;28;20756;-80
2023/11/25 04:22:51;;;;;;;20.80;7.07;;;;;;;3.26;100.00;100511.44;5032225;28;20060;-78
2023/11/25 04:25:20;;;;;;;23.60;7.25;;;;;;;3.31;100.00;100519.66;5042089;28;20095;-79
2023/11/25 04:27:48;;;;;;;21.33;6.88;;;;;;;3.33;100.00;100507.44;5033110;28;20140;-80
2023/11/25 04:30:16;;;;;;;28.38;8.23;;;;;;;3.32;100.00;100516.13;5033490;28;20106;-79
2023/11/25 04:32:44;;;;;;;21.42;6.75;;;;;;;3.29;100.00;100506.88;5033266;28;20049;-80
2023/11/25 04:35:11;;;;;;;30.40;7.47;;;;;;;3.27;100.00;100507.91;5041024;28;20503;-80
2023/11/25 04:37:38;;;;;;;25.30;6.97;;;;;;;3.25;100.00;100512.38;5034536;28;20088;-80
2023/11/25 04:40:07;;;;;;;22.35;7.65;;;;;;;3.31;100.00;100509.31;5041728;28;20084;-78
2023/11/25 04:42:36;;;;;;;24.70;7.70;;;;;;;3.30;100.00;100515.44;5036951;28;20049;-79
2023/11/25 04:45:03;;;;;;;17.58;7.05;;;;;;;3.23;100.00;100503.91;5038220;28;20085;-80
2023/11/25 04:47:30;;;;;;;29.92;9.25;;;;;;;3.21;100.00;100514.34;5033514;28;20144;-80
2023/11/25 04:49:56;;;;;;;22.75;7.97;;;;;;;3.14;100.00;100515.72;5034846;28;20144;-80
2023/11/25 04:52:24;;;;;;;27.00;10.10;;;;;;;3.26;100.00;100516.59;5034713;28;20124;-77
2023/11/25 04:54:51;;;;;;;20.65;8.90;;;;;;;3.24;100.00;100508.13;5037027;28;20045;-80
2023/11/25 04:57:18;;;;;;;22.33;7.78;;;;;;;3.22;100.00;100515.19;5033620;28;20060;-80
2023/11/25 04:59:46;;;;;;;23.10;7.60;;;;;;;3.25;100.00;100520.13;5033030;28;20095;-81
2023/11/25 05:02:13;;;;;;;24.58;6.65;;;;;;;3.13;100.00;100514.06;5033255;28;20050;-79
2023/11/25 05:04:40;;;;;;;25.50;7.22;;;;;;;3.11;100.00;100509.94;5043374;28;20056;-79
2023/11/25 05:07:06;;;;;;;29.42;7.45;;;;;;;3.07;100.00;100509.34;5035659;28;20132;-79
2023/11/25 05:09:35;;;;;;;35.85;7.70;;;;;;;3.10;100.00;100516.06;5031489;28;20129;-80
2023/11/25 05:12:03;;;;;;;30.77;7.47;;;;;;;3.17;100.00;100520.69;5039101;28;20052;-79
2023/11/25 05:14:29;;;;;;;20.42;5.32;;;;;;;3.18;100.00;100519.75;5035555;28;20053;-80
2023/11/25 05:16:57;;;;;;;17.02;5.95;;;;;;;3.31;100.00;100519.66;5044940;28;20132;-79
2023/11/25 05:19:24;;;;;;;22.23;6.25;;;;;;;3.37;100.00;100513.22;5040089;28;20132;-80
2023/11/25 05:21:50;;;;;;;20.48;6.15;;;;;;;3.40;100.00;100521.56;5031899;28;20447;-80
2023/11/25 05:24:17;;;;;;;26.23;6.70;;;;;;;3.43;100.00;100526.53;5035009;28;20105;-80
2023/11/25 05:26:44;;;;;;;17.92;5.43;;;;;;;3.42;100.00;100527.44;5043744;28;20563;-80
2023/11/25 05:29:10;;;;;;;13.73;4.35;;;;;;;3.45;100.00;100519.47;5039715;28;20143;-80
2023/11/25 05:31:37;;;;;;;23.27;5.85;;;;;;;3.40;100.00;100516.41;5046216;28;20053;-80
2023/11/25 05:34:05;;;;;;;18.65;4.95;;;;;;;3.36;100.00;100514.16;5039509;28;20080;-80
2023/11/25 05:36:32;;;;;;;18.88;6.00;;;;;;;3.33;100.00;100517.78;5047673;28;20096;-80
2023/11/25 05:38:59;;;;;;;22.10;7.03;;;;;;;3.33;100.00;100507.44;5038758;28;20104;-79
2023/11/25 05:41:27;;;;;;;23.65;7.90;;;;;;;3.44;100.00;100519.59;5038714;28;20053;-80
2023/11/25 05:43:54;;;;;;;23.13;7.05;;;;;;;3.37;100.00;100518.38;5047213;28;20496;-80
2023/11/25 05:46:22;;;;;;;22.95;7.70;;;;;;;3.45;100.00;100514.28;5039933;28;20081;-80
2023/11/25 05:48:48;;;;;;;28.27;7.70;;;;;;;3.43;100.00;100515.34;5038567;28;20055;-80
2023/11/25 05:51:18;;;;;;;21.25;7.75;;;;;;;3.47;100.00;100515.00;5044405;28;20131;-79
2023/11/25 05:53:45;;;;;;;18.95;6.55;;;;;;;3.49;100.00;100507.97;5036076;28;20073;-80
2023/11/25 05:56:11;;;;;;;13.07;5.65;;;;;;;3.51;100.00;100513.84;5035342;28;20045;-80
2023/11/25 05:58:38;;;;;;;20.40;4.68;;;;;;;3.48;100.00;100514.06;5039157;28;20041;-79
2023/11/25 06:01:05;;;;;;;18.65;5.55;;;;;;;3.53;100.00;100517.16;5036750;28;20144;-80
2023/11/25 06:03:32;;;;;;;18.38;4.85;;;;;;;3.48;100.00;100510.66;5036601;28;20050;-80
2023/11/25 06:05:58;;;;;;;17.77;4.43;;;;;;;3.48;100.00;100490.78;5036747;28;20160;-80
2023/11/25 06:08:26;;;;;;;17.65;3.95;;;;;;;3.54;100.00;100505.88;5036496;28;20065;-80
2023/11/25 06:10:54;;;;;;;18.77;4.55;;;;;;;3.49;100.00;100495.03;5035903;28;20136;-80
2023/11/25 06:13:20;;;;;;;15.85;4.38;;;;;;;3.47;100.00;100494.31;5037655;28;20049;-81
2023/11/25 06:15:48;;;;;;;17.73;3.72;;;;;;;3.60;100.00;100497.66;5043019;28;20049;-80
2023/11/25 06:18:17;;;;;;;18.38;4.57;;;;;;;3.43;100.00;100486.91;5044447;28;20470;-80
2023/11/25 06:20:45;;;;;;;15.90;4.00;;;;;;;3.56;100.00;100487.63;5047535;28;20479;-79
2023/11/25 06:23:12;;;;;;;21.48;4.20;;;;;;;3.57;100.00;100482.34;5038759;28;20045;-79
2023/11/25 06:25:42;;;;;;;15.52;4.38;;;;;;;3.67;100.00;100490.25;5035726;28;20054;-80
2023/11/25 06:28:09;;;;;;;18.45;4.70;;;;;;;3.67;100.00;100491.06;5035566;28;20053;-79
2023/11/25 06:33:35;;;;;;;21.67;5.07;;;;;;;3.68;100.00;100481.56;5015942;28;20068;-79
2023/11/25 06:36:06;;;;;;;15.88;4.55;;;;;;;3.74;100.00;100485.44;5017387;28;20049;-79
2023/11/25 06:41:43;;;;;;;19.35;4.13;;;;;;;3.56;100.00;100472.94;5009654;28;20057;-81
2023/11/25 06:44:10;;;;;;;13.80;4.25;;;;;;;3.71;100.00;100501.19;5045274;22;20050;-79
2023/11/25 06:46:37;;;;;;;21.27;4.97;;;;;;;3.73;100.00;100494.16;5037955;28;20057;-80
2023/11/25 06:49:08;;;;;;;18.50;5.22;;;;;;;3.78;100.00;100492.03;5045792;28;20079;-81
2023/11/25 06:51:34;;;;;;;21.17;5.65;;;;;;;3.77;100.00;100487.81;5044876;28;20052;-80
2023/11/25 06:54:01;;;;;;;18.10;4.95;;;;;;;3.91;100.00;100498.72;5045849;28;20147;-81
2023/11/25 06:56:44;;;;;;;17.77;4.55;;;;;;;4.06;100.00;100507.09;5043937;28;20053;-81
2023/11/25 06:59:11;;;;;;;12.82;3.78;;;;;;;4.11;100.00;100506.75;5040189;28;20415;-80
2023/11/25 07:01:40;;;;;;;22.58;4.70;;;;;;;3.92;100.00;100496.97;5047903;28;20052;-82
2023/11/25 07:04:07;;;;;;;19.63;4.10;;;;;;;4.04;100.00;100503.00;5043326;28;20045;-81
2023/11/25 07:06:34;;;;;;;19.73;4.53;;;;;;;3.99;100.00;100495.56;5045623;28;20049;-79
2023/11/25 07:09:01;;;;;;;14.40;3.90;;;;;;;3.94;100.00;100487.31;5045366;28;20084;-80
2023/11/25 07:11:29;;;;;;;14.20;4.10;;;;;;;3.99;100.00;100498.97;5044690;28;20053;-79
2023/11/25 07:13:57;;;;;;;17.17;3.97;;;;;;;4.00;100.00;100490.28;5045066;28;20111;-80
2023/11/25 07:16:24;;;;;;;18.98;4.60;;;;;;;4.00;100.00;100492.03;5043289;28;20057;-80
2023/11/25 07:18:51;;;;;;;13.60;4.38;;;;;;;3.93;100.00;100499.44;5044286;28;20069;-81
2023/11/25 07:21:18;;;;;;;18.02;4.65;;;;;;;3.95;100.00;100494.16;5044093;28;20077;-80
2023/11/25 07:23:44;;;;;;;14.57;3.75;;;;;;;3.98;100.00;100483.56;5049054;28;20137;-80
2023/11/25 07:26:11;;;;;;;19.17;4.53;;;;;;;3.90;100.00;100478.97;5045009;28;20060;-79
2023/11/25 07:28:38;;;;;;;17.00;4.00;;;;;;;4.02;100.00;100484.97;5045545;28;20517;-79
2023/11/25 07:31:09;;;;;;;18.38;4.45;;;;;;;4.12;100.00;100491.09;5045903;28;20096;-80
2023/11/25 07:33:36;;;;;;;18.27;4.90;;;;;;;4.15;100.00;100488.28;5034474;28;20496;-81
2023/11/25 07:36:02;;;;;;;18.00;5.78;;;;;;;4.10;100.00;100489.56;5052084;28;20052;-78
2023/11/25 07:38:29;;;;;;;16.02;6.07;;;;;;;4.13;100.00;100484.16;5047870;28;20057;-80
2023/11/25 07:40:56;;;;;;;16.08;5.00;;;;;;;4.11;100.00;100489.47;5049736;28;20119;-78
2023/11/25 07:43:24;;;;;;;21.85;5.43;;;;;;;4.14;100.00;100494.41;5052314;28;20053;-79
2023/11/25 07:45:50;;;;;;;19.90;6.28;;;;;;;4.08;100.00;100489.69;5051006;28;20049;-80
2023/11/25 07:48:18;;;;;;;20.35;6.03;;;;;;;4.13;100.00;100497.09;5047973;28;20413;-79
2023/11/25 07:50:45;;;;;;;18.92;5.93;;;;;;;4.03;100.00;100491.81;5045133;28;20546;-80
2023/11/25 07:53:12;;;;;;;18.52;5.90;;;;;;;4.07;100.00;100493.22;5045481;28;20107;-80
2023/11/25 07:55:39;;;;;;;22.05;5.47;;;;;;;4.17;100.00;100489.00;5046609;28;20072;-80
2023/11/25 07:58:06;;;;;;;16.88;5.43;;;;;;;4.27;100.00;100478.72;5046738;28;20144;-81
2023/11/25 08:00:33;;;;;;;20.33;5.38;;;;;;;4.40;100.00;100484.59;5046457;28;20069;-81
2023/11/25 08:02:59;;;;;;;16.70;5.43;;;;;;;4.55;100.00;100477.38;5045862;28;20515;-79
2023/11/25 08:05:28;;;;;;;17.35;5.28;;;;;;;4.78;100.00;100478.97;5044470;28;20053;-83
2023/11/25 08:07:56;;;;;;;16.35;6.00;;;;;;;4.72;100.00;100482.06;5044906;28;20060;-78
2023/11/25 08:10:31;;;;;;;14.93;5.40;;;;;;;4.71;100.00;100480.44;5045047;28;20121;-79
2023/11/25 08:12:57;;;;;;;16.08;5.05;;;;;;;4.67;100.00;100471.25;5044969;28;20049;-79
2023/11/25 08:15:24;;;;;;;14.77;4.30;;;;;;;4.64;100.00;100476.66;5046182;28;20052;-80
2023/11/25 08:17:51;;;;;;;11.90;4.15;;;;;;;4.67;100.00;100468.66;5056399;28;20041;-81
2023/11/25 08:20:17;;;;;;;13.32;4.53;;;;;;;4.72;100.00;100470.88;5046952;28;20450;-83
2023/11/25 08:22:45;;;;;;;10.68;4.10;;;;;;;4.69;100.00;100484.91;5055397;28;20056;-79
2023/11/25 08:25:12;;;;;;;13.55;4.18;;;;;;;4.61;100.00;100472.56;5045449;28;20468;-80
2023/11/25 08:27:39;;;;;;;11.18;3.88;;;;;;;4.69;100.00;100474.53;5044693;28;20053;-82
2023/11/25 08:30:08;;;;;;;11.73;3.65;;;;;;;4.66;100.00;100477.38;5051909;28;20049;-82
2023/11/25 08:32:35;;;;;;;14.60;3.97;;;;;;;4.76;100.00;100486.03;5053236;28;20060;-79
2023/11/25 08:35:01;;;;;;;15.55;3.60;;;;;;;4.66;100.00;100482.56;5045324;28;20058;-79
2023/11/25 08:37:28;;;;;;;19.17;5.82;;;;;;;4.60;100.00;100483.88;5044949;28;20140;-79
2023/11/25 08:39:56;;;;;;;14.85;6.55;;;;;;;4.59;100.00;100481.38;5054162;28;20115;-80
2023/11/25 08:42:24;;;;;;;14.52;5.45;;;;;;;4.54;100.00;100486.09;5047530;28;20107;-80
2023/11/25 08:44:51;;;;;;;22.17;5.85;;;;;;;4.51;100.00;100473.38;5054027;28;20049;-79
2023/11/25 08:47:19;;;;;;;13.95;6.53;;;;;;;4.45;100.00;100476.47;5046334;28;20045;-81
2023/11/25 08:49:46;;;;;;;21.60;6.40;;;;;;;4.47;100.00;100474.56;5045201;28;20048;-82
2023/11/25 08:52:13;;;;;;;16.60;5.55;;;;;;;4.47;100.00;100475.41;5045316;28;20041;-81
2023/11/25 08:54:40;;;;;;;20.10;5.32;;;;;;;4.44;100.00;100480.00;5042598;28;20053;-81
2023/11/25 08:57:08;;;;;;;18.08;4.80;;;;;;;4.46;100.00;100483.28;5043250;28;20081;-81
2023/11/25 08:59:36;;;;;;;23.27;5.18;;;;;;;4.51;100.00;100483.75;5054172;28;20072;-80
2023/11/25 09:02:04;;;;;;;14.27;5.40;;;;;;;4.57;100.00;100484.09;5053599;28;20072;-82
2023/11/25 09:04:36;;;;;;;11.98;4.32;;;;;;;4.61;100.00;100482.91;5055381;28;20148;-80
2023/11/25 09:07:03;;;;;;;13.68;3.80;;;;;;;4.65;100.00;100480.91;5050861;28;20053;-80
2023/11/25 09:09:31;;;;;;;13.85;3.95;;;;;;;4.76;100.00;100475.66;5051124;28;20041;-80
2023/11/25 09:11:59;;;;;;;10.70;3.40;;;;;;;4.78;100.00;100466.00;5042723;28;20046;-77
2023/11/25 09:14:27;;;;;;;14.23;2.95;;;;;;;4.97;100.00;100479.16;5051246;28;20422;-80
2023/11/25 09:16:54;;;;;;;12.13;3.25;;;;;;;5.15;100.00;100471.66;5044004;28;20053;-80
2023/11/25 09:19:22;;;;;;;14.80;3.50;;;;;;;5.25;100.00;100479.47;5052653;28;20065;-80
2023/11/25 09:21:50;;;;;;;8.77;3.25;;;;;;;5.37;100.00;100475.88;5043307;28;20053;-79
2023/11/25 09:24:16;;;;;;;7.18;3.03;;;;;;;5.37;100.00;100460.31;5035979;28;20508;-78
2023/11/25 09:26:43;;;;;;;13.43;4.40;;;;;;;5.23;100.00;100458.03;5036775;28;20079;-78
2023/11/25 09:29:10;;;;;;;12.60;4.28;;;;;;;5.20;100.00;100460.91;5036255;28;20056;-81
2023/11/25 09:31:41;;;;;;;12.77;4.15;;;;;;;5.17;100.00;100463.75;5036554;28;21239;-78
2023/11/25 09:34:08;;;;;;;12.93;4.35;;;;;;;5.12;100.00;100460.69;5038739;28;20057;-78
2023/11/25 09:36:35;;;;;;;17.88;5.68;;;;;;;5.03;100.00;100456.25;5037169;28;20056;-79
2023/11/25 09:39:03;;;;;;;18.90;4.68;;;;;;;5.09;100.00;100466.97;5038245;28;20065;-79
2023/11/25 09:41:31;;;;;;;15.43;6.10;;;;;;;5.08;100.00;100454.13;5037694;28;20041;-79
2023/11/25 09:43:58;;;;;;;13.73;4.03;;;;;;;5.10;100.00;100468.59;5035033;28;20053;-78
2023/11/25 09:46:25;;;;;;;11.70;3.83;;;;;;;5.14;100.00;100448.44;5036716;28;20045;-78
2023/11/25 09:48:53;;;;;;;15.40;4.53;;;;;;;5.19;100.00;100461.84;5050001;28;20046;-78
2023/11/25 09:51:25;;;;;;;14.25;4.78;;;;;;;5.18;100.00;100453.25;5044419;28;20073;-80
2023/11/25 09:53:57;;;;;;;15.02;4.68;;;;;;;5.32;100.00;100455.50;5049723;28;20277;-79
2023/11/25 09:56:23;;;;;;;19.63;5.43;;;;;;;5.41;100.00;100445.31;5046186;28;20049;-78
2023/11/25 09:58:50;;;;;;;19.27;5.25;;;;;;;5.40;100.00;100443.69;5048857;28;20064;-80
2023/11/25 10:01:17;;;;;;;11.20;4.35;;;;;;;5.58;100.00;100444.75;5042983;28;20050;-80
2023/11/25 10:03:45;;;;;;;12.18;4.28;;;;;;;5.67;100.00;100431.78;5043278;28;20132;-79
2023/11/25 10:06:14;;;;;;;12.68;4.93;;;;;;;5.86;100.00;100443.22;5042222;28;20042;-78
2023/11/25 10:08:40;;;;;;;11.98;3.78;;;;;;;5.80;100.00;100441.97;5040319;28;20502;-79
2023/11/25 10:11:08;;;;;;;12.65;4.15;;;;;;;5.95;100.00;100437.28;5038753;28;20069;-79
2023/11/25 10:13:36;;;;;;;15.90;4.72;;;;;;;5.84;100.00;100440.75;5039503;28;20059;-79
2023/11/25 10:16:04;;;;;;;13.85;4.38;;;;;;;5.83;100.00;100446.09;5048973;28;20046;-79
2023/11/25 10:18:30;;;;;;;13.20;4.40;;;;;;;6.09;100.00;100456.91;5046894;28;20061;-79
2023/11/25 10:20:58;;;;;;;14.15;4.10;;;;;;;6.22;100.00;100449.69;5055593;28;20069;-78
2023/11/25 10:23:26;;;;;;;12.10;4.25;;;;;;;6.14;100.00;100439.97;5044275;28;20200;-80
2023/11/25 10:25:54;;;;;;;16.58;3.88;;;;;;;6.21;100.00;100428.06;5061960;28;20037;-81
2023/11/25 10:28:21;;;;;;;16.23;4.40;;;;;;;6.15;100.00;100436.38;5054154;28;20049;-80
2023/11/25 10:30:57;;;;;;;12.45;4.22;;;;;;;6.05;100.00;100427.75;5056132;28;20128;-80
2023/11/25 10:33:24;;;;;;;11.75;4.43;;;;;;;5.95;100.00;100425.13;5052676;28;20053;-80
2023/11/25 10:35:52;;;;;;;8.65;3.70;;;;;;;5.80;100.00;100425.56;5053189;28;20127;-80
2023/11/25 10:38:21;;;;;;;13.27;3.58;;;;;;;5.90;100.00;100422.09;5050036;28;20065;-80
2023/11/25 10:40:49;;;;;;;11.57;3.85;;;;;;;6.11;100.00;100429.00;5047758;28;20049;-79
2023/11/25 10:43:17;;;;;;;13.30;4.22;;;;;;;6.15;100.00;100426.00;5048324;28;20052;-78
2023/11/25 10:45:45;;;;;;;12.80;4.35;;;;;;;6.31;100.00;100415.91;5041420;28;20057;-80
2023/11/25 10:48:12;;;;;;;12.88;3.65;;;;;;;6.57;100.00;100405.03;5048800;28;20045;-79
2023/11/25 10:50:41;;;;;;;8.57;4.00;;;;;;;6.77;100.00;100406.66;5051384;28;20089;-79
2023/11/25 10:53:13;;;;;;;7.88;3.92;;;;;;;6.92;100.00;100401.88;5056879;28;20045;-80
2023/11/25 10:55:42;;;;;;;12.07;3.72;;;;;;;7.07;99.30;100386.66;5035227;28;20053;-80
2023/11/25 10:58:11;;;;;;;10.27;3.28;;;;;;;7.25;97.79;100390.19;5052800;28;20073;-80
2023/11/25 11:00:39;;;;;;;7.88;3.45;;;;;;;7.05;97.28;100380.78;5032831;28;20100;-79
2023/11/25 11:03:10;;;;;;;6.05;3.40;;;;;;;6.83;96.68;100390.50;5045147;28;20061;-80
2023/11/25 11:05:42;;;;;;;9.68;3.30;;;;;;;6.81;97.52;100382.03;5049389;28;20049;-80
2023/11/25 11:08:15;;;;;;;6.60;3.10;;;;;;;6.60;97.64;100373.56;5058406;28;20045;-81
2023/11/25 11:10:48;;;;;;;10.48;3.15;;;;;;;6.55;97.86;100376.56;5042669;28;20045;-79
2023/11/25 11:13:22;;;;;;;16.80;3.70;;;;;;;6.45;98.16;100378.34;5051428;28;20072;-78
2023/11/25 11:15:52;;;;;;;9.45;3.30;;;;;;;6.61;98.65;100380.41;5045206;28;20076;-81
2023/11/25 11:18:23;;;;;;;9.13;3.83;;;;;;;6.76;98.60;100396.41;5046558;28;20068;-80
2023/11/25 11:20:51;;;;;;;7.85;3.10;;;;;;;6.73;98.01;100386.25;5045223;28;20076;-79
2023/11/25 11:23:22;;;;;;;13.00;8.07;;;;;;;6.72;98.19;100382.84;5038556;28;20121;-81
2023/11/25 11:25:57;;;;;;;10.75;3.45;;;;;;;6.90;97.57;100386.41;5044627;28;20053;-81
2023/11/25 11:28:37;;;;;;;8.43;3.33;;;;;;;7.11;97.25;100382.81;5046391;28;20053;-80